Time;durP1;ratioP1;P1;durP2;ratioP2;P2;SDS_P1;SDS_P2;PMS_P1;PMS_P2;Temp;Humidity;BMP_temperature;BMP_pressure;BME280_temperature;BME280_humidity;BME280_pressure;Samples;Min_cycle;Max_cycle;Signal;HPM_P1;HPM_P2
2021/05/08 00:00:38;;;;;;;6.00;2.00;;;;;;;;;;5139688;27;20469;-72
2021/05/08 00:03:06;;;;;;;10.03;2.10;;;;;;;;;;5140873;27;20537;-72
2021/05/08 00:05:33;;;;;;;4.57;1.90;;;;;;;;;;5140933;27;20454;-73
2021/05/08 00:11:05;;;;;;;6.47;2.87;;;;;;;;;;5123493;27;20487;-72
2021/05/08 00:13:34;;;;;;;6.43;2.17;;;;;;;;;;5140333;27;20449;-72
2021/05/08 00:16:02;;;;;;;12.07;3.00;;;;;;;;;;5119691;28;20519;-71
2021/05/08 00:18:29;;;;;;;15.73;2.23;;;;;;;;;;5137249;27;20442;-71
2021/05/08 00:20:57;;;;;;;4.90;1.80;;;;;;;;;;5140551;27;20518;-70
2021/05/08 00:23:27;;;;;;;7.30;2.07;;;;;;;;;;5128256;27;20485;-71
2021/05/08 00:25:56;;;;;;;8.87;2.23;;;;;;;;;;5139693;27;20458;-71
2021/05/08 00:28:26;;;;;;;4.70;2.10;;;;;;;;;;5139564;27;20517;-72
2021/05/08 00:30:54;;;;;;;8.57;2.13;;;;;;;;;;5139474;27;20462;-72
2021/05/08 00:33:22;;;;;;;7.53;3.63;;;;;;;;;;5139951;27;20459;-72
2021/05/08 00:35:51;;;;;;;8.00;2.17;;;;;;;;;;5140068;27;20527;-71
2021/05/08 00:38:19;;;;;;;7.93;2.43;;;;;;;;;;5139902;27;20446;-71
2021/05/08 00:40:48;;;;;;;6.40;1.93;;;;;;;;;;5139736;27;20462;-71
2021/05/08 00:43:16;;;;;;;7.80;2.07;;;;;;;;;;5140185;27;20454;-71
2021/05/08 00:45:46;;;;;;;7.47;2.63;;;;;;;;;;5139507;27;20458;-71
2021/05/08 00:48:16;;;;;;;9.57;1.77;;;;;;;;;;5139172;27;20501;-71
2021/05/08 00:50:44;;;;;;;6.10;2.07;;;;;;;;;;5139341;27;20703;-71
2021/05/08 00:53:14;;;;;;;7.20;2.47;;;;;;;;;;5139652;27;20474;-71
2021/05/08 00:55:42;;;;;;;4.63;2.10;;;;;;;;;;5139499;27;20454;-71
2021/05/08 00:58:11;;;;;;;5.13;2.27;;;;;;;;;;5139571;27;20445;-71
2021/05/08 01:00:39;;;;;;;5.33;2.17;;;;;;;;;;5138718;27;20459;-72
2021/05/08 01:03:08;;;;;;;8.57;3.27;;;;;;;;;;5140145;27;20442;-72
2021/05/08 01:05:37;;;;;;;4.80;2.70;;;;;;;;;;5139306;27;20469;-72
2021/05/08 01:08:05;;;;;;;9.73;2.13;;;;;;;;;;5139445;27;20508;-71
2021/05/08 01:10:33;;;;;;;6.80;2.20;;;;;;;;;;5139685;27;20468;-71
2021/05/08 01:13:04;;;;;;;6.10;1.90;;;;;;;;;;5139503;27;20478;-71
2021/05/08 01:15:32;;;;;;;7.00;1.90;;;;;;;;;;5138519;27;20807;-71
2021/05/08 01:17:59;;;;;;;8.00;3.87;;;;;;;;;;5139114;27;20730;-71
2021/05/08 01:20:30;;;;;;;6.40;2.53;;;;;;;;;;5139294;27;20447;-71
2021/05/08 01:22:59;;;;;;;8.40;2.20;;;;;;;;;;5138587;27;20719;-71
2021/05/08 01:25:28;;;;;;;6.03;2.50;;;;;;;;;;5138981;27;20484;-71
2021/05/08 01:27:57;;;;;;;7.87;2.10;;;;;;;;;;5138904;27;20531;-71
2021/05/08 01:30:25;;;;;;;7.90;2.40;;;;;;;;;;5138809;27;20454;-71
2021/05/08 01:32:53;;;;;;;10.10;2.87;;;;;;;;;;5139345;27;20453;-71
2021/05/08 01:35:20;;;;;;;8.10;2.40;;;;;;;;;;5138750;27;20446;-71
2021/05/08 01:37:48;;;;;;;13.33;3.23;;;;;;;;;;5138914;27;20728;-71
2021/05/08 01:40:18;;;;;;;5.70;3.00;;;;;;;;;;5139067;27;20496;-71
2021/05/08 01:42:47;;;;;;;5.20;2.60;;;;;;;;;;5139006;27;20446;-71
2021/05/08 01:45:16;;;;;;;13.27;2.93;;;;;;;;;;5138504;27;20897;-71
2021/05/08 01:47:44;;;;;;;9.13;3.40;;;;;;;;;;5138138;27;20474;-71
2021/05/08 01:50:15;;;;;;;11.47;2.57;;;;;;;;;;5138520;27;20471;-71
2021/05/08 01:52:46;;;;;;;5.90;2.77;;;;;;;;;;5138173;27;20438;-72
2021/05/08 01:55:15;;;;;;;5.43;2.47;;;;;;;;;;5138383;27;20461;-72
2021/05/08 01:57:45;;;;;;;10.40;2.83;;;;;;;;;;5138893;27;20449;-71
2021/05/08 02:00:14;;;;;;;8.27;3.50;;;;;;;;;;5138359;27;20839;-72
2021/05/08 02:02:41;;;;;;;11.10;4.03;;;;;;;;;;5119868;27;20463;-71
2021/05/08 02:05:11;;;;;;;6.47;2.60;;;;;;;;;;5138886;27;20492;-72
2021/05/08 02:07:39;;;;;;;9.03;2.57;;;;;;;;;;5138537;27;20501;-71
2021/05/08 02:10:07;;;;;;;6.80;2.27;;;;;;;;;;5137425;27;20446;-71
2021/05/08 02:12:37;;;;;;;5.57;3.23;;;;;;;;;;5138166;27;20493;-71
2021/05/08 02:15:08;;;;;;;8.93;2.77;;;;;;;;;;5137670;27;20439;-71
2021/05/08 02:17:36;;;;;;;5.40;2.13;;;;;;;;;;5137851;27;20458;-71
2021/05/08 02:20:05;;;;;;;8.40;2.30;;;;;;;;;;5138079;27;20447;-72
2021/05/08 02:22:32;;;;;;;16.03;4.20;;;;;;;;;;5137631;27;20531;-71
2021/05/08 02:25:00;;;;;;;4.73;2.40;;;;;;;;;;5137929;27;20458;-71
2021/05/08 02:27:28;;;;;;;7.23;2.77;;;;;;;;;;5137584;27;20509;-71
2021/05/08 02:29:56;;;;;;;9.13;2.40;;;;;;;;;;5137606;27;20454;-71
2021/05/08 02:32:27;;;;;;;6.30;2.20;;;;;;;;;;5137768;27;20450;-71
2021/05/08 02:34:55;;;;;;;3.70;2.10;;;;;;;;;;5127787;27;20893;-71
2021/05/08 02:37:23;;;;;;;7.90;2.53;;;;;;;;;;5137937;27;20846;-71
2021/05/08 02:39:51;;;;;;;6.03;2.60;;;;;;;;;;5137439;27;20442;-71
2021/05/08 02:42:19;;;;;;;11.90;4.20;;;;;;;;;;5137636;27;20477;-71
2021/05/08 02:44:47;;;;;;;6.87;2.23;;;;;;;;;;5138126;27;20462;-71
2021/05/08 02:47:19;;;;;;;9.40;2.97;;;;;;;;;;5137878;27;20511;-71
2021/05/08 02:49:48;;;;;;;8.53;2.60;;;;;;;;;;5136879;27;20454;-71
2021/05/08 02:52:16;;;;;;;4.73;2.20;;;;;;;;;;5137668;27;20537;-71
2021/05/08 02:54:47;;;;;;;7.07;2.40;;;;;;;;;;5137267;27;20846;-71
2021/05/08 02:57:14;;;;;;;5.63;2.03;;;;;;;;;;5138097;27;20461;-72
2021/05/08 02:59:43;;;;;;;5.37;2.50;;;;;;;;;;5137518;27;21055;-71
2021/05/08 03:02:11;;;;;;;11.77;4.57;;;;;;;;;;5136999;28;20457;-71
2021/05/08 03:04:42;;;;;;;5.57;2.50;;;;;;;;;;5137168;28;20438;-72
2021/05/08 03:07:11;;;;;;;4.10;2.60;;;;;;;;;;5131181;27;20474;-72
2021/05/08 03:09:39;;;;;;;7.53;3.20;;;;;;;;;;5131831;28;20869;-72
2021/05/08 03:12:07;;;;;;;18.33;3.17;;;;;;;;;;5137904;27;20469;-71
2021/05/08 03:14:35;;;;;;;6.07;2.80;;;;;;;;;;5141481;27;21012;-71
2021/05/08 03:17:02;;;;;;;5.93;3.90;;;;;;;;;;5141145;27;20554;-71
2021/05/08 03:19:31;;;;;;;7.10;2.90;;;;;;;;;;5141489;27;20543;-71
2021/05/08 03:21:59;;;;;;;11.13;2.40;;;;;;;;;;5141317;27;20519;-71
2021/05/08 03:24:28;;;;;;;8.33;2.77;;;;;;;;;;5141569;27;20478;-71
2021/05/08 03:26:56;;;;;;;7.67;3.37;;;;;;;;;;5140783;27;20500;-72
2021/05/08 03:29:24;;;;;;;5.17;2.90;;;;;;;;;;5141077;27;20930;-71
2021/05/08 03:31:52;;;;;;;9.33;3.20;;;;;;;;;;5142018;27;20469;-71
2021/05/08 03:34:20;;;;;;;6.97;2.77;;;;;;;;;;5141036;27;20485;-71
2021/05/08 03:36:48;;;;;;;12.30;3.60;;;;;;;;;;5141969;27;20465;-71
2021/05/08 03:39:16;;;;;;;6.20;2.70;;;;;;;;;;5141673;27;20450;-71
2021/05/08 03:41:44;;;;;;;3.83;2.33;;;;;;;;;;5141777;27;20486;-71
2021/05/08 03:44:12;;;;;;;7.70;2.33;;;;;;;;;;5140693;27;20446;-71
2021/05/08 03:46:40;;;;;;;6.70;2.93;;;;;;;;;;5141357;27;20450;-71
2021/05/08 03:49:07;;;;;;;9.77;3.70;;;;;;;;;;5141172;27;20507;-71
2021/05/08 03:51:35;;;;;;;7.87;2.80;;;;;;;;;;5141363;27;20493;-71
2021/05/08 03:54:03;;;;;;;5.77;3.30;;;;;;;;;;5140228;27;20446;-71
2021/05/08 03:56:32;;;;;;;6.30;2.63;;;;;;;;;;5140891;27;20800;-71
2021/05/08 03:59:00;;;;;;;5.93;3.87;;;;;;;;;;5140918;27;20463;-71
2021/05/08 04:01:39;;;;;;;4.43;2.50;;;;;;;;;;5141067;27;20592;-71
2021/05/08 04:04:07;;;;;;;4.97;3.03;;;;;;;;;;5140816;27;20553;-72
2021/05/08 04:06:34;;;;;;;6.63;3.20;;;;;;;;;;5140999;27;20485;-72
2021/05/08 04:09:02;;;;;;;6.63;3.27;;;;;;;;;;5141098;27;20592;-72
2021/05/08 04:11:29;;;;;;;15.93;2.80;;;;;;;;;;5140809;27;20462;-71
2021/05/08 04:13:57;;;;;;;7.07;3.53;;;;;;;;;;5141183;27;20553;-71
2021/05/08 04:16:26;;;;;;;6.43;2.30;;;;;;;;;;5140930;27;20442;-72
2021/05/08 04:18:53;;;;;;;7.80;3.10;;;;;;;;;;5140681;27;20453;-71
2021/05/08 04:21:22;;;;;;;5.87;2.57;;;;;;;;;;5140704;27;20489;-71
2021/05/08 04:23:50;;;;;;;3.70;2.30;;;;;;;;;;5139269;27;20457;-71
2021/05/08 04:26:18;;;;;;;22.13;3.77;;;;;;;;;;5140072;27;20451;-71
2021/05/08 04:28:46;;;;;;;8.50;3.10;;;;;;;;;;5139896;27;20490;-71
2021/05/08 04:31:14;;;;;;;6.80;2.67;;;;;;;;;;5140662;27;20525;-71
2021/05/08 04:33:43;;;;;;;6.40;3.30;;;;;;;;;;5139920;27;21104;-71
2021/05/08 04:36:11;;;;;;;5.20;2.80;;;;;;;;;;5140289;27;20529;-70
2021/05/08 04:38:40;;;;;;;6.13;3.20;;;;;;;;;;5140348;27;20498;-71
2021/05/08 04:41:08;;;;;;;6.77;3.37;;;;;;;;;;5140386;27;20450;-71
2021/05/08 04:43:36;;;;;;;8.17;3.77;;;;;;;;;;5139999;27;20450;-72
2021/05/08 04:46:04;;;;;;;7.00;3.43;;;;;;;;;;5139490;27;20461;-71
2021/05/08 04:48:33;;;;;;;6.67;3.63;;;;;;;;;;5139667;27;20485;-71
2021/05/08 04:51:01;;;;;;;4.90;3.50;;;;;;;;;;5139751;27;20454;-71
2021/05/08 04:53:29;;;;;;;5.97;3.87;;;;;;;;;;5119315;28;20455;-71
2021/05/08 04:56:03;;;;;;;7.00;4.00;;;;;;;;;;5119284;28;20447;-71
2021/05/08 04:58:34;;;;;;;11.03;4.23;;;;;;;;;;5133468;27;20447;-71
2021/05/08 05:01:09;;;;;;;13.40;4.10;;;;;;;;;;5139508;27;20449;-71
2021/05/08 05:03:36;;;;;;;9.30;3.43;;;;;;;;;;5139716;27;20516;-71
2021/05/08 05:06:06;;;;;;;12.47;3.43;;;;;;;;;;5138975;27;20868;-71
2021/05/08 05:08:35;;;;;;;5.53;3.70;;;;;;;;;;5139766;27;20493;-71
2021/05/08 05:11:03;;;;;;;6.40;3.20;;;;;;;;;;5139479;27;20464;-71
2021/05/08 05:13:31;;;;;;;5.60;3.60;;;;;;;;;;5139621;27;20764;-71
2021/05/08 05:15:59;;;;;;;5.97;3.20;;;;;;;;;;5139892;27;20490;-71
2021/05/08 05:18:27;;;;;;;7.20;2.70;;;;;;;;;;5138268;27;20557;-71
2021/05/08 05:20:57;;;;;;;6.43;4.50;;;;;;;;;;5124355;27;20450;-71
2021/05/08 05:23:25;;;;;;;9.70;3.93;;;;;;;;;;5139875;27;20470;-70
2021/05/08 05:25:53;;;;;;;5.63;3.17;;;;;;;;;;5138769;27;20663;-71
2021/05/08 05:28:22;;;;;;;8.03;3.10;;;;;;;;;;5139034;27;20544;-72
2021/05/08 05:30:50;;;;;;;4.83;2.87;;;;;;;;;;5139182;27;20934;-71
2021/05/08 05:33:19;;;;;;;6.30;3.27;;;;;;;;;;5138795;27;20481;-71
2021/05/08 05:35:48;;;;;;;10.20;4.93;;;;;;;;;;5138289;27;20470;-71
2021/05/08 05:38:17;;;;;;;8.00;3.37;;;;;;;;;;5139277;27;20515;-71
2021/05/08 05:41:03;;;;;;;5.33;3.07;;;;;;;;;;5138954;27;20450;-71
2021/05/08 05:43:30;;;;;;;6.43;3.27;;;;;;;;;;5127873;27;20523;-71
2021/05/08 05:45:58;;;;;;;9.30;3.33;;;;;;;;;;5124448;27;20545;-72
2021/05/08 05:48:25;;;;;;;9.57;3.60;;;;;;;;;;5137991;27;21159;-71
2021/05/08 05:50:52;;;;;;;8.57;2.60;;;;;;;;;;5138129;27;20533;-71
2021/05/08 05:53:20;;;;;;;6.87;2.37;;;;;;;;;;5138138;27;20497;-72
2021/05/08 05:55:47;;;;;;;9.87;3.37;;;;;;;;;;5138233;27;20993;-72
2021/05/08 05:58:17;;;;;;;8.40;2.77;;;;;;;;;;5138858;27;20506;-72
2021/05/08 06:00:46;;;;;;;7.40;3.23;;;;;;;;;;5138403;27;20453;-71
2021/05/08 06:03:14;;;;;;;5.10;2.87;;;;;;;;;;5135068;27;20442;-71
2021/05/08 06:05:42;;;;;;;12.30;3.07;;;;;;;;;;5118072;28;20707;-71
2021/05/08 06:08:18;;;;;;;7.40;3.60;;;;;;;;;;5117685;28;20951;-71
2021/05/08 06:10:47;;;;;;;7.17;2.90;;;;;;;;;;5117851;28;20512;-71
2021/05/08 06:13:21;;;;;;;11.77;3.00;;;;;;;;;;5137856;27;20450;-71
2021/05/08 06:15:50;;;;;;;6.10;3.13;;;;;;;;;;5137847;27;20508;-71
2021/05/08 06:18:17;;;;;;;6.73;3.83;;;;;;;;;;5138293;27;20458;-71
2021/05/08 06:20:44;;;;;;;8.63;3.40;;;;;;;;;;5137578;27;20442;-71
2021/05/08 06:23:12;;;;;;;4.90;2.77;;;;;;;;;;5120366;27;20857;-71
2021/05/08 06:25:39;;;;;;;10.07;3.90;;;;;;;;;;5117236;28;20455;-71
2021/05/08 06:28:06;;;;;;;7.07;3.90;;;;;;;;;;5129670;27;20930;-71
2021/05/08 06:30:35;;;;;;;7.00;3.30;;;;;;;;;;5117063;28;20848;-71
2021/05/08 06:33:02;;;;;;;4.13;2.60;;;;;;;;;;5127630;27;20754;-71
2021/05/08 06:35:29;;;;;;;6.53;2.87;;;;;;;;;;5137835;27;20743;-71
2021/05/08 06:37:56;;;;;;;7.00;2.97;;;;;;;;;;5117714;27;20439;-71
2021/05/08 06:40:24;;;;;;;6.30;3.00;;;;;;;;;;5135180;27;20474;-70
2021/05/08 06:42:52;;;;;;;6.93;2.50;;;;;;;;;;5123593;27;20444;-71
2021/05/08 06:45:20;;;;;;;4.30;2.83;;;;;;;;;;5132519;27;20490;-71
2021/05/08 06:47:51;;;;;;;10.40;4.53;;;;;;;;;;5132620;27;20494;-71
2021/05/08 06:50:18;;;;;;;15.07;3.20;;;;;;;;;;5116974;28;20455;-71
2021/05/08 06:52:46;;;;;;;4.60;2.47;;;;;;;;;;5116692;28;20459;-71
2021/05/08 06:55:13;;;;;;;7.50;3.20;;;;;;;;;;5116045;28;20855;-71
2021/05/08 06:57:41;;;;;;;7.70;2.73;;;;;;;;;;5116250;28;20816;-71
2021/05/08 07:00:09;;;;;;;6.10;2.30;;;;;;;;;;5120672;27;20785;-71
2021/05/08 07:05:43;;;;;;;12.37;2.70;;;;;;;;;;5136422;28;20437;-71
2021/05/08 07:08:12;;;;;;;9.10;3.13;;;;;;;;;;5136501;28;20474;-71
2021/05/08 07:10:47;;;;;;;7.70;2.30;;;;;;;;;;5129462;27;20533;-72
2021/05/08 07:13:15;;;;;;;10.10;2.70;;;;;;;;;;5136495;27;20863;-71
2021/05/08 07:15:44;;;;;;;6.27;2.50;;;;;;;;;;5136319;27;20727;-71
2021/05/08 07:18:15;;;;;;;5.83;2.50;;;;;;;;;;5136093;27;20442;-72
2021/05/08 07:20:49;;;;;;;4.90;1.67;;;;;;;;;;5136230;27;20461;-71
2021/05/08 07:23:18;;;;;;;8.90;2.77;;;;;;;;;;5136391;27;20458;-71
2021/05/08 07:25:49;;;;;;;6.10;2.73;;;;;;;;;;5135794;28;20870;-72
2021/05/08 07:28:23;;;;;;;9.77;2.77;;;;;;;;;;5136307;27;20482;-71
2021/05/08 07:30:54;;;;;;;7.10;2.97;;;;;;;;;;5136539;27;20474;-71
2021/05/08 07:33:24;;;;;;;11.40;3.10;;;;;;;;;;5136376;28;20472;-71
2021/05/08 07:35:55;;;;;;;10.37;3.40;;;;;;;;;;5136335;27;20522;-71
2021/05/08 07:38:24;;;;;;;7.60;2.60;;;;;;;;;;5135849;28;20449;-70
2021/05/08 07:40:55;;;;;;;6.10;2.37;;;;;;;;;;5136310;27;20468;-71
2021/05/08 07:43:27;;;;;;;6.33;2.23;;;;;;;;;;5135135;27;20450;-72
2021/05/08 07:45:56;;;;;;;6.63;2.27;;;;;;;;;;5116994;27;20439;-71
2021/05/08 07:48:29;;;;;;;9.87;4.10;;;;;;;;;;5130891;28;20485;-72
2021/05/08 07:51:02;;;;;;;10.67;2.40;;;;;;;;;;5136235;28;20449;-71
2021/05/08 07:53:30;;;;;;;4.00;1.43;;;;;;;;;;5136292;27;20474;-71
2021/05/08 07:55:59;;;;;;;4.23;2.03;;;;;;;;;;5136364;27;20780;-71
2021/05/08 07:58:27;;;;;;;6.23;1.90;;;;;;;;;;5136826;27;20468;-71
2021/05/08 08:00:55;;;;;;;9.70;2.37;;;;;;;;;;5139633;27;20537;-72
2021/05/08 08:03:22;;;;;;;8.27;2.70;;;;;;;;;;5141761;27;20886;-72
2021/05/08 08:05:58;;;;;;;7.73;3.10;;;;;;;;;;5140777;27;20457;-71
2021/05/08 08:08:36;;;;;;;11.23;2.53;;;;;;;;;;5140035;27;20478;-71
2021/05/08 08:11:03;;;;;;;5.63;1.87;;;;;;;;;;5133124;27;20474;-70
2021/05/08 08:13:31;;;;;;;12.53;3.00;;;;;;;;;;5139339;27;20461;-71
2021/05/08 08:15:59;;;;;;;8.60;2.17;;;;;;;;;;5138836;27;20456;-71
2021/05/08 08:18:31;;;;;;;4.17;1.27;;;;;;;;;;5139431;27;20720;-71
2021/05/08 08:20:59;;;;;;;6.20;3.30;;;;;;;;;;5129395;27;20462;-71
2021/05/08 08:23:31;;;;;;;5.70;1.80;;;;;;;;;;5130316;27;20842;-70
2021/05/08 08:26:01;;;;;;;6.03;2.20;;;;;;;;;;5129675;27;21197;-72
2021/05/08 08:28:31;;;;;;;4.27;1.70;;;;;;;;;;5130301;27;21011;-72
2021/05/08 08:31:03;;;;;;;5.13;1.30;;;;;;;;;;5138662;27;20458;-69
2021/05/08 08:33:31;;;;;;;4.80;1.80;;;;;;;;;;5118715;28;20455;-71
2021/05/08 08:35:59;;;;;;;19.70;2.60;;;;;;;;;;5117655;28;20460;-71
2021/05/08 08:38:26;;;;;;;3.20;1.80;;;;;;;;;;5134722;27;20474;-71
2021/05/08 08:40:58;;;;;;;7.33;1.70;;;;;;;;;;5138634;27;20461;-72
2021/05/08 08:43:32;;;;;;;4.07;0.80;;;;;;;;;;5136816;27;20914;-72
2021/05/08 08:46:19;;;;;;;5.27;1.70;;;;;;;;;;5138646;27;20453;-71
2021/05/08 08:48:53;;;;;;;4.93;1.80;;;;;;;;;;5137979;27;20482;-71
2021/05/08 08:51:23;;;;;;;5.20;1.53;;;;;;;;;;5137794;27;20541;-70
2021/05/08 08:53:56;;;;;;;5.37;1.63;;;;;;;;;;5138574;27;20446;-71
2021/05/08 08:56:32;;;;;;;6.83;1.40;;;;;;;;;;5137793;27;20477;-72
2021/05/08 08:59:12;;;;;;;6.50;1.63;;;;;;;;;;5129120;27;20870;-70
2021/05/08 09:01:41;;;;;;;5.27;1.30;;;;;;;;;;5124490;27;20550;-70
2021/05/08 09:04:09;;;;;;;6.03;1.23;;;;;;;;;;5137897;27;21064;-71
2021/05/08 09:06:36;;;;;;;4.20;1.47;;;;;;;;;;5137150;27;20561;-71
2021/05/08 09:09:05;;;;;;;5.00;1.67;;;;;;;;;;5136401;27;20486;-72
2021/05/08 09:11:33;;;;;;;6.57;1.20;;;;;;;;;;5136326;27;20559;-71
2021/05/08 09:14:18;;;;;;;3.10;1.37;;;;;;;;;;5130955;27;20859;-74
2021/05/08 09:17:04;;;;;;;5.07;1.57;;;;;;;;;;5136256;27;20943;-72
2021/05/08 09:19:31;;;;;;;5.70;1.33;;;;;;;;;;5137133;27;20531;-71
2021/05/08 09:21:59;;;;;;;8.60;1.50;;;;;;;;;;5137825;27;20866;-71
2021/05/08 09:24:27;;;;;;;5.43;2.27;;;;;;;;;;5137531;27;20484;-74
2021/05/08 09:27:00;;;;;;;6.87;1.70;;;;;;;;;;5137104;27;20561;-72
2021/05/08 09:29:27;;;;;;;4.83;1.50;;;;;;;;;;5137776;27;20576;-72
2021/05/08 09:31:56;;;;;;;8.77;1.30;;;;;;;;;;5137829;27;20504;-73
2021/05/08 09:34:24;;;;;;;7.23;1.70;;;;;;;;;;5137257;27;20482;-73
2021/05/08 09:36:52;;;;;;;4.60;1.50;;;;;;;;;;5137965;27;20473;-73
2021/05/08 09:39:31;;;;;;;4.40;1.37;;;;;;;;;;5136743;27;20826;-72
2021/05/08 09:41:59;;;;;;;5.50;1.70;;;;;;;;;;5135650;27;20458;-73
2021/05/08 09:44:29;;;;;;;5.70;1.53;;;;;;;;;;5137945;27;20474;-73
2021/05/08 09:46:58;;;;;;;4.20;1.30;;;;;;;;;;5136853;27;20458;-73
2021/05/08 09:49:25;;;;;;;3.43;1.20;;;;;;;;;;5137857;27;20486;-73
2021/05/08 09:52:00;;;;;;;6.93;1.53;;;;;;;;;;5138967;27;20450;-74
2021/05/08 09:54:27;;;;;;;3.30;1.50;;;;;;;;;;5138101;27;20477;-73
2021/05/08 09:56:54;;;;;;;4.50;1.40;;;;;;;;;;5137728;27;20453;-74
2021/05/08 09:59:24;;;;;;;3.17;1.37;;;;;;;;;;5137897;27;20455;-73
2021/05/08 10:01:52;;;;;;;6.33;1.23;;;;;;;;;;5137811;27;20446;-74
2021/05/08 10:04:33;;;;;;;5.80;1.73;;;;;;;;;;5136764;27;20450;-73
2021/05/08 10:07:09;;;;;;;3.27;1.10;;;;;;;;;;5136575;27;20917;-72
2021/05/08 10:09:45;;;;;;;3.93;1.57;;;;;;;;;;5136224;27;20513;-73
2021/05/08 10:12:14;;;;;;;4.93;1.90;;;;;;;;;;5135411;27;20453;-73
2021/05/08 10:14:43;;;;;;;6.70;1.97;;;;;;;;;;5134894;27;20603;-72
2021/05/08 10:17:12;;;;;;;6.50;1.70;;;;;;;;;;5136344;27;20458;-73
2021/05/08 10:19:40;;;;;;;2.40;1.03;;;;;;;;;;5136575;27;20516;-72
2021/05/08 10:22:08;;;;;;;3.70;1.70;;;;;;;;;;5135893;27;20455;-72
2021/05/08 10:24:38;;;;;;;3.37;1.53;;;;;;;;;;5135801;27;20511;-71
2021/05/08 10:27:10;;;;;;;5.17;2.23;;;;;;;;;;5136042;27;20455;-72
2021/05/08 10:29:40;;;;;;;4.60;1.53;;;;;;;;;;5132864;27;20478;-71
2021/05/08 10:32:11;;;;;;;3.27;1.50;;;;;;;;;;5136703;27;20458;-70
2021/05/08 10:34:39;;;;;;;3.13;1.07;;;;;;;;;;5136272;27;20445;-72
2021/05/08 10:37:08;;;;;;;4.17;1.47;;;;;;;;;;5136380;27;20458;-74
2021/05/08 10:39:57;;;;;;;3.97;1.30;;;;;;;;;;5136814;27;20556;-73
2021/05/08 10:42:38;;;;;;;7.47;1.87;;;;;;;;;;5135429;27;20450;-72
2021/05/08 10:45:31;;;;;;;5.87;1.60;;;;;;;;;;5132214;27;20475;-71
2021/05/08 10:48:10;;;;;;;5.43;2.10;;;;;;;;;;5135487;27;20541;-72
2021/05/08 10:50:47;;;;;;;5.00;1.43;;;;;;;;;;5132852;27;20503;-72
2021/05/08 10:53:22;;;;;;;5.30;1.97;;;;;;;;;;5135650;27;20500;-73
2021/05/08 10:55:54;;;;;;;5.40;3.07;;;;;;;;;;5132044;27;20497;-72
2021/05/08 10:58:32;;;;;;;3.80;1.57;;;;;;;;;;5134824;27;20585;-72
2021/05/08 11:01:04;;;;;;;4.50;1.80;;;;;;;;;;5135855;27;20783;-72
2021/05/08 11:03:57;;;;;;;3.73;1.40;;;;;;;;;;5134385;27;20438;-72
2021/05/08 11:06:25;;;;;;;5.43;1.77;;;;;;;;;;5128614;28;20733;-72
2021/05/08 11:09:00;;;;;;;2.77;1.30;;;;;;;;;;5132227;27;20521;-72
2021/05/08 11:11:47;;;;;;;3.43;1.40;;;;;;;;;;5135463;27;20493;-72
2021/05/08 11:14:16;;;;;;;4.27;1.53;;;;;;;;;;5136350;27;20574;-73
2021/05/08 11:17:08;;;;;;;4.23;1.60;;;;;;;;;;5135228;28;20544;-71
2021/05/08 11:19:57;;;;;;;4.13;1.37;;;;;;;;;;5119409;28;20443;-71
2021/05/08 11:22:33;;;;;;;4.13;2.10;;;;;;;;;;5135342;27;21056;-70
2021/05/08 11:25:00;;;;;;;5.20;1.23;;;;;;;;;;5135711;28;20456;-71
2021/05/08 11:27:29;;;;;;;4.90;2.30;;;;;;;;;;5132672;28;20451;-70
2021/05/08 11:30:07;;;;;;;6.47;2.03;;;;;;;;;;5135057;27;21245;-72
2021/05/08 11:32:45;;;;;;;3.37;1.70;;;;;;;;;;5114592;28;20499;-73
2021/05/08 11:35:28;;;;;;;5.60;1.83;;;;;;;;;;5126809;27;20450;-72
2021/05/08 11:38:14;;;;;;;7.97;2.23;;;;;;;;;;5136023;27;20458;-72
2021/05/08 11:40:41;;;;;;;3.20;1.80;;;;;;;;;;5134928;27;20565;-71
2021/05/08 11:43:09;;;;;;;6.13;1.83;;;;;;;;;;5140249;27;20442;-71
2021/05/08 11:45:40;;;;;;;4.93;2.20;;;;;;;;;;5139786;27;20478;-71
2021/05/08 11:48:08;;;;;;;5.07;1.80;;;;;;;;;;5138990;27;20489;-71
2021/05/08 11:50:37;;;;;;;4.77;1.97;;;;;;;;;;5138813;27;20533;-72
2021/05/08 11:53:05;;;;;;;4.70;2.00;;;;;;;;;;5132384;27;20528;-72
2021/05/08 11:55:32;;;;;;;6.20;4.97;;;;;;;;;;5126357;27;20480;-71
2021/05/08 11:58:01;;;;;;;4.57;1.57;;;;;;;;;;5135459;27;20549;-72
2021/05/08 12:00:31;;;;;;;4.13;1.63;;;;;;;;;;5136252;27;20458;-70
2021/05/08 12:03:07;;;;;;;2.80;1.17;;;;;;;;;;5134167;27;20501;-72
2021/05/08 12:05:46;;;;;;;4.60;1.63;;;;;;;;;;5118269;28;20500;-70
2021/05/08 12:08:22;;;;;;;3.03;1.20;;;;;;;;;;5129418;27;20454;-71
2021/05/08 12:10:55;;;;;;;4.47;1.13;;;;;;;;;;5129225;27;20469;-72
2021/05/08 12:13:31;;;;;;;5.57;1.77;;;;;;;;;;5139289;27;20506;-70
2021/05/08 12:16:07;;;;;;;3.23;1.30;;;;;;;;;;5138647;27;20549;-72
2021/05/08 12:18:36;;;;;;;2.73;1.40;;;;;;;;;;5136746;27;20497;-71
2021/05/08 12:21:14;;;;;;;3.80;2.33;;;;;;;;;;5126860;27;20819;-71
2021/05/08 12:23:47;;;;;;;2.87;1.63;;;;;;;;;;5133677;27;20844;-71
2021/05/08 12:26:21;;;;;;;3.90;1.70;;;;;;;;;;5139362;27;20457;-72
2021/05/08 12:28:57;;;;;;;3.20;1.50;;;;;;;;;;5138751;27;20482;-71
2021/05/08 12:31:25;;;;;;;3.10;1.30;;;;;;;;;;5138074;27;20469;-71
2021/05/08 12:33:53;;;;;;;3.10;1.70;;;;;;;;;;5128750;27;20447;-73
2021/05/08 12:36:28;;;;;;;4.87;1.53;;;;;;;;;;5118154;28;20469;-71
2021/05/08 12:38:56;;;;;;;2.90;1.87;;;;;;;;;;5138048;27;20442;-72
2021/05/08 12:41:26;;;;;;;4.63;1.80;;;;;;;;;;5138013;27;20891;-71
2021/05/08 12:44:04;;;;;;;6.03;1.53;;;;;;;;;;5137893;27;20446;-71
2021/05/08 12:46:46;;;;;;;4.97;1.77;;;;;;;;;;5137171;27;20530;-71
2021/05/08 12:49:18;;;;;;;3.40;1.33;;;;;;;;;;5139161;27;20537;-71
2021/05/08 12:51:49;;;;;;;7.20;1.90;;;;;;;;;;5138460;27;20454;-72
2021/05/08 12:54:20;;;;;;;5.20;1.97;;;;;;;;;;5117602;28;20450;-72
2021/05/08 12:56:50;;;;;;;3.90;2.03;;;;;;;;;;5118140;27;20854;-71
2021/05/08 12:59:35;;;;;;;5.20;2.27;;;;;;;;;;5122023;27;20464;-71
2021/05/08 13:02:24;;;;;;;4.33;1.70;;;;;;;;;;5137324;27;20457;-73
2021/05/08 13:05:09;;;;;;;3.40;1.60;;;;;;;;;;5138230;27;20846;-71
2021/05/08 13:10:36;;;;;;;3.43;2.23;;;;;;;;;;5112708;27;20542;-73
2021/05/08 13:13:07;;;;;;;3.47;1.67;;;;;;;;;;5137770;27;20469;-72
2021/05/08 13:15:38;;;;;;;3.47;1.43;;;;;;;;;;5137061;27;20781;-71
2021/05/08 13:18:07;;;;;;;2.60;1.70;;;;;;;;;;5137984;27;20473;-72
2021/05/08 13:20:37;;;;;;;2.90;1.90;;;;;;;;;;5137429;27;20450;-72
2021/05/08 13:23:08;;;;;;;3.20;1.70;;;;;;;;;;5137655;27;20447;-72
2021/05/08 13:25:38;;;;;;;3.40;1.70;;;;;;;;;;5137457;27;20534;-71
2021/05/08 13:28:07;;;;;;;4.30;1.50;;;;;;;;;;5136224;27;20446;-71
2021/05/08 13:30:35;;;;;;;2.93;1.83;;;;;;;;;;5137771;27;20475;-71
2021/05/08 13:33:03;;;;;;;3.50;1.40;;;;;;;;;;5136323;27;20574;-70
2021/05/08 13:35:31;;;;;;;3.57;2.07;;;;;;;;;;5137488;27;20549;-71
2021/05/08 13:38:00;;;;;;;4.67;1.70;;;;;;;;;;5136861;27;20442;-70
2021/05/08 13:40:28;;;;;;;2.83;1.10;;;;;;;;;;5137165;27;20476;-70
2021/05/08 13:42:57;;;;;;;4.07;1.80;;;;;;;;;;5135027;27;20503;-71
2021/05/08 13:45:24;;;;;;;4.60;1.63;;;;;;;;;;5130442;27;20473;-71
2021/05/08 13:47:52;;;;;;;3.23;1.90;;;;;;;;;;5136966;27;20839;-70
2021/05/08 13:50:19;;;;;;;2.97;2.03;;;;;;;;;;5137125;27;20505;-71
2021/05/08 13:52:49;;;;;;;4.20;1.60;;;;;;;;;;5138416;27;20458;-71
2021/05/08 13:55:20;;;;;;;3.00;1.70;;;;;;;;;;5137878;27;20465;-71
2021/05/08 13:57:52;;;;;;;3.73;1.90;;;;;;;;;;5138125;27;20910;-71
2021/05/08 14:00:21;;;;;;;4.17;1.97;;;;;;;;;;5138293;27;20827;-71
2021/05/08 14:02:50;;;;;;;4.20;2.10;;;;;;;;;;5119410;27;20442;-72
2021/05/08 14:05:22;;;;;;;2.93;2.10;;;;;;;;;;5134675;27;20482;-70
2021/05/08 14:07:50;;;;;;;4.53;2.30;;;;;;;;;;5135309;27;20689;-71
2021/05/08 14:10:18;;;;;;;3.70;2.20;;;;;;;;;;5123974;27;20530;-71
2021/05/08 14:12:46;;;;;;;5.27;2.10;;;;;;;;;;5127175;27;20461;-72
2021/05/08 14:15:18;;;;;;;5.87;2.17;;;;;;;;;;5121643;27;20475;-71
2021/05/08 14:17:51;;;;;;;3.20;1.90;;;;;;;;;;5122344;27;20448;-71
2021/05/08 14:20:19;;;;;;;6.57;2.83;;;;;;;;;;5121542;27;20470;-71
2021/05/08 14:22:47;;;;;;;3.67;2.30;;;;;;;;;;5126935;27;20874;-71
2021/05/08 14:25:15;;;;;;;5.57;2.60;;;;;;;;;;5127249;27;20470;-72
2021/05/08 14:27:42;;;;;;;4.33;2.30;;;;;;;;;;5130737;27;20442;-70
2021/05/08 14:30:11;;;;;;;4.40;2.03;;;;;;;;;;5136768;27;20482;-71
2021/05/08 14:32:41;;;;;;;6.93;3.13;;;;;;;;;;5133665;27;20458;-71
2021/05/08 14:35:12;;;;;;;4.03;1.97;;;;;;;;;;5135706;27;20450;-71
2021/05/08 14:37:44;;;;;;;2.83;1.60;;;;;;;;;;5135892;27;20446;-71
2021/05/08 14:40:14;;;;;;;5.57;2.07;;;;;;;;;;5135019;27;20466;-71
2021/05/08 14:42:44;;;;;;;5.10;2.40;;;;;;;;;;5136075;27;20532;-71
2021/05/08 14:45:14;;;;;;;6.27;2.20;;;;;;;;;;5135764;27;20898;-72
2021/05/08 14:47:56;;;;;;;4.50;2.83;;;;;;;;;;5135768;27;20466;-71
2021/05/08 14:50:24;;;;;;;4.37;2.07;;;;;;;;;;5131644;27;20580;-71
2021/05/08 14:52:53;;;;;;;4.90;2.30;;;;;;;;;;5129343;27;20454;-71
2021/05/08 14:55:22;;;;;;;6.03;2.73;;;;;;;;;;5135872;27;20458;-71
2021/05/08 14:57:49;;;;;;;7.30;2.90;;;;;;;;;;5135680;27;20519;-70
2021/05/08 15:00:24;;;;;;;5.87;3.00;;;;;;;;;;5130076;27;20479;-72
2021/05/08 15:02:59;;;;;;;4.43;2.50;;;;;;;;;;5133974;27;20445;-70
2021/05/08 15:05:29;;;;;;;3.97;2.27;;;;;;;;;;5136322;27;20872;-70
2021/05/08 15:08:12;;;;;;;5.77;2.63;;;;;;;;;;5134165;27;20454;-70